Accedi per prenotare

Caricamento...

Situazione Metar e Taf aeroporto Pisa - Effemeridi Aeroporto Lucca

[Source: ADDS]
METAR
LIRP 220015Z 12011KT 9999 -RA FEW030 SCT060 20/12 Q1018 TEMPO TSRA =
LIRP 212300Z 2200/2224 09010KT 9999 SCT025 SCT070 TEMPO 2200/2224 09015G25KT 5000 TSRA FEW015CB SCT020
TAF
LIRP 212300Z 2200/2224 09010KT 9999 SCT025 SCT070 TEMPO 2200/2224 09015G25KT 5000 TSRA FEW015CB SCT020 =
SR / SS: 05:06 / 17:18 UTC (Effemeridi LIQL 2019-09-22)